Time;durP1;ratioP1;P1;durP2;ratioP2;P2;SDS_P1;SDS_P2;PMS_P1;PMS_P2;Temp;Humidity;BMP_temperature;BMP_pressure;BME280_temperature;BME280_humidity;BME280_pressure;Samples;Min_cycle;Max_cycle;Signal;HPM_P1;HPM_P2
2024/04/06 00:01:43;;;;;;;15.05;2.83;;;;;;;12.73;77.00;101013.44;5036418;28;20045;-45
2024/04/06 00:04:09;;;;;;;16.00;2.70;;;;;;;12.72;76.89;101027.78;5045788;28;20656;-48
2024/04/06 00:06:35;;;;;;;13.98;2.85;;;;;;;12.79;76.34;101027.22;5036868;28;20060;-46
2024/04/06 00:09:01;;;;;;;16.77;3.17;;;;;;;12.80;76.00;101026.22;5022043;28;20064;-48
2024/04/06 00:11:27;;;;;;;15.52;2.90;;;;;;;12.74;76.23;101015.09;5008162;28;20411;-52
2024/04/06 00:13:53;;;;;;;12.38;2.85;;;;;;;12.66;76.50;101020.34;5038008;28;20110;-50
2024/04/06 00:16:20;;;;;;;13.55;2.80;;;;;;;12.52;77.00;101023.44;5018722;28;20045;-52
2024/04/06 00:18:45;;;;;;;16.73;3.38;;;;;;;12.42;78.05;101025.25;5038574;28;20045;-50
2024/04/06 00:21:11;;;;;;;12.98;3.17;;;;;;;12.54;77.48;101017.91;5009788;28;20419;-51
2024/04/06 00:23:37;;;;;;;14.52;3.55;;;;;;;12.27;78.60;101016.00;5034840;28;20050;-50
2024/04/06 00:26:03;;;;;;;17.73;3.20;;;;;;;12.41;78.27;101012.88;4996591;28;20133;-48
2024/04/06 00:28:29;;;;;;;14.05;3.00;;;;;;;12.74;76.71;101008.94;5024301;28;20050;-51
2024/04/06 00:30:55;;;;;;;11.20;2.85;;;;;;;12.53;77.60;101011.75;5025982;28;20045;-50
2024/04/06 00:33:21;;;;;;;17.85;3.28;;;;;;;12.59;77.63;101013.00;5022996;28;20049;-51
2024/04/06 00:35:47;;;;;;;15.93;3.78;;;;;;;12.46;78.32;101013.31;5012664;28;20053;-53
2024/04/06 00:38:13;;;;;;;20.08;3.25;;;;;;;12.41;78.60;101012.03;5045619;28;20083;-49
2024/04/06 00:40:39;;;;;;;14.38;3.25;;;;;;;12.46;79.20;101009.81;5026051;28;20484;-48
2024/04/06 00:43:05;;;;;;;17.13;3.17;;;;;;;12.30;79.38;101008.56;5046436;28;20072;-50
2024/04/06 00:45:30;;;;;;;18.15;3.55;;;;;;;12.48;79.09;101011.31;5041773;28;20084;-48
2024/04/06 00:47:57;;;;;;;10.20;2.90;;;;;;;12.49;78.71;101006.81;5045960;28;20064;-47
2024/04/06 00:50:23;;;;;;;12.32;3.35;;;;;;;12.55;78.31;101020.47;5039231;28;20055;-52
2024/04/06 00:52:49;;;;;;;16.02;3.47;;;;;;;12.50;79.03;101013.88;5043070;28;20045;-50
2024/04/06 00:55:15;;;;;;;16.48;4.32;;;;;;;12.42;79.63;101017.25;5020752;28;20079;-51
2024/04/06 00:57:43;;;;;;;15.82;3.38;;;;;;;12.50;79.34;101011.19;5035453;28;20045;-53
2024/04/06 01:00:09;;;;;;;11.40;3.20;;;;;;;12.43;79.31;101018.09;5044431;28;20492;-49
2024/04/06 01:02:35;;;;;;;12.75;3.42;;;;;;;12.50;79.28;101021.88;5044036;28;20462;-46
2024/04/06 01:05:01;;;;;;;14.90;3.53;;;;;;;12.61;78.92;101027.94;5045290;28;20416;-50
2024/04/06 01:07:27;;;;;;;17.10;3.40;;;;;;;12.52;79.06;101031.47;5042836;28;20614;-47
2024/04/06 01:09:54;;;;;;;12.10;3.17;;;;;;;12.47;78.67;101019.50;5045936;28;20075;-51
2024/04/06 01:12:20;;;;;;;13.10;3.78;;;;;;;12.59;78.51;101024.56;5014651;28;20517;-51
2024/04/06 01:14:45;;;;;;;11.13;3.53;;;;;;;12.45;79.21;101026.81;5028241;28;20055;-50
2024/04/06 01:17:11;;;;;;;18.92;3.45;;;;;;;12.65;78.54;101028.50;5045813;28;20569;-50
2024/04/06 01:19:37;;;;;;;19.20;4.00;;;;;;;12.55;79.39;101031.16;5043801;28;25736;-51
2024/04/06 01:22:03;;;;;;;17.30;3.25;;;;;;;12.54;79.11;101032.13;5024523;28;20080;-54
2024/04/06 01:24:30;;;;;;;16.17;3.72;;;;;;;12.63;79.24;101034.00;5031654;28;20055;-47
2024/04/06 01:27:00;;;;;;;19.95;3.70;;;;;;;12.61;78.70;101035.97;5030971;28;20049;-48
2024/04/06 01:29:27;;;;;;;15.70;3.78;;;;;;;12.64;78.71;101034.84;5039159;28;20160;-48
2024/04/06 01:31:54;;;;;;;16.35;4.43;;;;;;;12.65;78.76;101042.72;5028794;28;20046;-47
2024/04/06 01:34:20;;;;;;;18.45;3.80;;;;;;;12.57;79.28;101044.38;5021970;28;20067;-46
2024/04/06 01:36:47;;;;;;;12.52;3.45;;;;;;;12.58;78.65;101038.06;5031211;28;20071;-46
2024/04/06 01:39:13;;;;;;;14.55;3.58;;;;;;;12.57;78.95;101033.69;5028567;28;20523;-49
2024/04/06 01:41:42;;;;;;;11.10;3.08;;;;;;;12.48;79.87;101035.38;5030142;28;20073;-47
2024/04/06 01:44:07;;;;;;;16.63;3.67;;;;;;;12.60;79.78;101031.59;5037445;28;20072;-49
2024/04/06 01:46:34;;;;;;;18.48;4.28;;;;;;;12.56;79.54;101032.00;5011659;28;20054;-53
2024/04/06 01:49:00;;;;;;;12.57;3.75;;;;;;;12.62;79.00;101034.13;5010635;28;20041;-51
2024/04/06 01:51:26;;;;;;;17.17;4.35;;;;;;;12.59;79.25;101039.75;5018332;28;20060;-51
2024/04/06 01:53:52;;;;;;;15.07;3.40;;;;;;;12.70;78.68;101036.94;5016971;28;20064;-51
2024/04/06 01:56:18;;;;;;;14.45;3.13;;;;;;;12.65;78.66;101041.88;5019189;28;20054;-51
2024/04/06 01:58:45;;;;;;;21.90;4.00;;;;;;;12.70;78.47;101043.13;5021618;28;20049;-49
2024/04/06 02:01:15;;;;;;;20.23;3.40;;;;;;;12.79;78.44;101044.09;5033622;28;20053;-50
2024/04/06 02:03:41;;;;;;;17.67;3.50;;;;;;;12.74;78.66;101036.50;5023199;28;20049;-48
2024/04/06 02:06:10;;;;;;;21.27;3.78;;;;;;;12.89;77.72;101039.56;5026794;28;20505;-52
2024/04/06 02:08:36;;;;;;;14.00;3.67;;;;;;;12.79;78.62;101037.91;5017069;28;20048;-48
2024/04/06 02:11:03;;;;;;;16.85;3.25;;;;;;;12.72;79.02;101041.16;5010648;28;20472;-48
2024/04/06 02:13:29;;;;;;;15.77;3.17;;;;;;;12.87;78.25;101038.03;5008450;28;20050;-49
2024/04/06 02:15:55;;;;;;;18.88;3.25;;;;;;;12.93;77.74;101038.28;5010253;28;20358;-46
2024/04/06 02:18:21;;;;;;;19.63;4.43;;;;;;;12.81;78.31;101030.59;5039139;28;20066;-48
2024/04/06 02:20:48;;;;;;;14.82;3.15;;;;;;;12.98;77.82;101029.81;5007158;28;20057;-48
2024/04/06 02:23:13;;;;;;;20.40;3.10;;;;;;;13.09;77.48;101024.28;5013115;28;20060;-52
2024/04/06 02:25:39;;;;;;;12.25;3.00;;;;;;;13.07;77.52;101027.13;5042559;28;20048;-50
2024/04/06 02:28:05;;;;;;;25.35;4.47;;;;;;;13.13;76.98;101021.19;5044537;28;20055;-48
2024/04/06 02:30:34;;;;;;;16.00;3.75;;;;;;;13.11;77.14;101022.31;5038733;28;20099;-47
2024/04/06 02:33:00;;;;;;;14.45;3.65;;;;;;;13.10;76.87;101026.81;5015449;28;20056;-51
2024/04/06 02:35:26;;;;;;;14.82;3.50;;;;;;;13.17;76.90;101021.72;5013743;28;20128;-45
2024/04/06 02:37:51;;;;;;;17.00;3.08;;;;;;;13.19;77.18;101030.44;5038385;28;20143;-47
2024/04/06 02:40:17;;;;;;;15.55;3.10;;;;;;;13.25;76.93;101027.19;5022441;28;20140;-51
2024/04/06 02:42:44;;;;;;;17.80;3.05;;;;;;;13.27;76.66;101027.88;5022600;28;21784;-47
2024/04/06 02:45:09;;;;;;;16.00;3.45;;;;;;;13.24;76.84;101016.63;5027076;28;20045;-54
2024/04/06 02:47:35;;;;;;;17.02;3.70;;;;;;;13.16;77.28;101009.31;5040435;28;20126;-48
2024/04/06 02:50:02;;;;;;;19.10;3.33;;;;;;;13.17;77.04;101011.00;5042631;28;20110;-49
2024/04/06 02:52:27;;;;;;;12.75;3.08;;;;;;;13.27;76.82;101009.16;5040434;28;20119;-47
2024/04/06 02:54:53;;;;;;;15.05;3.03;;;;;;;13.12;77.20;100997.25;5042536;28;20575;-48
2024/04/06 02:57:19;;;;;;;11.60;3.28;;;;;;;13.35;76.57;101003.91;5041061;28;20087;-50
2024/04/06 02:59:45;;;;;;;10.82;2.95;;;;;;;13.32;76.94;100998.81;5021831;28;20530;-48
2024/04/06 03:02:11;;;;;;;10.35;3.20;;;;;;;13.20;76.99;100992.00;5042251;28;20385;-52
2024/04/06 03:04:40;;;;;;;16.13;4.13;;;;;;;13.29;76.86;101001.78;5023513;28;20050;-53
2024/04/06 03:07:06;;;;;;;18.08;3.83;;;;;;;13.24;77.03;101003.22;5042708;28;20041;-49
2024/04/06 03:09:35;;;;;;;15.30;4.15;;;;;;;13.24;77.02;100996.03;5041235;28;20045;-49
2024/04/06 03:12:05;;;;;;;13.05;3.33;;;;;;;13.19;76.97;100976.06;5043385;28;20474;-50
2024/04/06 03:14:31;;;;;;;10.55;3.38;;;;;;;13.17;76.60;100976.22;5039204;28;20049;-46
2024/04/06 03:16:58;;;;;;;12.00;3.42;;;;;;;13.19;76.34;100976.06;5042670;28;20412;-51
2024/04/06 03:19:27;;;;;;;12.90;3.30;;;;;;;13.13;76.98;100956.97;5041366;28;20542;-49
2024/04/06 03:21:52;;;;;;;18.40;3.92;;;;;;;13.04;77.43;100962.34;5037892;28;20067;-50
2024/04/06 03:24:18;;;;;;;19.08;4.00;;;;;;;13.05;77.15;100967.56;5016347;28;20515;-49
2024/04/06 03:26:44;;;;;;;14.98;3.78;;;;;;;12.80;77.95;100964.72;5008557;28;20087;-47
2024/04/06 03:29:11;;;;;;;18.10;4.90;;;;;;;12.77;78.57;100972.03;5019030;28;20075;-52
2024/04/06 03:31:36;;;;;;;18.40;4.47;;;;;;;12.99;77.48;100986.88;5014172;28;20379;-52
2024/04/06 03:34:02;;;;;;;14.25;4.63;;;;;;;12.93;77.60;100986.63;5020325;28;20073;-49
2024/04/06 03:36:28;;;;;;;15.63;4.70;;;;;;;12.76;79.03;100986.38;5007211;28;20050;-48
2024/04/06 03:38:54;;;;;;;17.90;4.32;;;;;;;12.79;78.12;100984.41;5014117;28;20045;-49
2024/04/06 03:41:20;;;;;;;12.23;4.40;;;;;;;12.56;79.83;100992.75;5013619;28;20049;-48
2024/04/06 03:43:45;;;;;;;14.45;4.32;;;;;;;12.72;78.55;100990.34;5016690;28;20049;-49
2024/04/06 03:46:11;;;;;;;9.05;4.03;;;;;;;12.62;78.38;100992.19;5020537;28;20045;-50
2024/04/06 03:48:37;;;;;;;13.88;4.10;;;;;;;12.59;79.74;100989.78;5022666;28;20390;-52
2024/04/06 03:51:03;;;;;;;17.42;4.70;;;;;;;12.54;79.39;100997.38;5019366;28;20056;-52
2024/04/06 03:53:35;;;;;;;13.23;4.70;;;;;;;12.57;80.26;101002.44;5013940;28;20527;-50
2024/04/06 03:56:01;;;;;;;13.50;5.20;;;;;;;12.62;79.96;100994.88;5023094;28;20044;-51
2024/04/06 03:58:27;;;;;;;10.27;5.15;;;;;;;12.40;80.89;100989.81;5022973;28;20045;-50
2024/04/06 04:00:53;;;;;;;15.25;6.05;;;;;;;12.63;80.87;100996.56;4997185;28;20057;-53
2024/04/06 04:03:19;;;;;;;16.90;5.43;;;;;;;12.71;81.03;100994.00;5022520;28;20052;-48
2024/04/06 04:05:46;;;;;;;10.70;5.35;;;;;;;12.79;80.26;100995.13;5016371;28;20050;-52
2024/04/06 04:08:11;;;;;;;17.75;5.40;;;;;;;12.81;80.42;100998.50;5010075;28;20060;-50
2024/04/06 04:10:37;;;;;;;14.30;6.20;;;;;;;12.88;80.93;100984.38;5011740;28;20049;-52
2024/04/06 04:13:09;;;;;;;11.93;5.53;;;;;;;12.89;81.03;100994.09;4996942;28;20042;-50
2024/04/06 04:15:39;;;;;;;12.25;5.88;;;;;;;12.86;81.09;101001.56;5024218;28;20041;-52
2024/04/06 04:18:06;;;;;;;14.60;6.40;;;;;;;12.95;81.13;101012.22;5009121;28;20052;-46
2024/04/06 04:20:32;;;;;;;16.42;6.85;;;;;;;12.98;81.28;101005.75;5019205;28;20386;-47
2024/04/06 04:23:00;;;;;;;16.08;6.88;;;;;;;13.09;80.81;101005.53;5017024;28;20056;-49
2024/04/06 04:25:29;;;;;;;11.35;6.45;;;;;;;13.08;81.38;101002.03;5037906;28;20059;-49
2024/04/06 04:27:56;;;;;;;16.98;6.78;;;;;;;13.04;83.42;101006.00;5009987;28;20412;-48
2024/04/06 04:30:22;;;;;;;14.75;7.03;;;;;;;13.26;81.95;101010.13;5040000;28;20053;-50
2024/04/06 04:32:49;;;;;;;15.52;6.70;;;;;;;13.24;81.54;101006.75;5046673;28;20105;-50
2024/04/06 04:35:15;;;;;;;18.42;7.00;;;;;;;13.22;82.07;101005.22;5045810;28;20067;-49
2024/04/06 04:37:40;;;;;;;16.95;7.13;;;;;;;13.36;81.91;101002.88;5043516;28;20049;-49
2024/04/06 04:40:08;;;;;;;10.85;6.78;;;;;;;13.47;81.59;101001.84;5045711;28;20049;-52
2024/04/06 04:42:35;;;;;;;13.50;6.82;;;;;;;13.50;81.79;100993.50;5044152;28;20049;-49
2024/04/06 04:45:09;;;;;;;14.40;7.60;;;;;;;13.56;81.19;100982.22;5046127;28;20057;-48
2024/04/06 04:47:35;;;;;;;15.73;6.88;;;;;;;13.34;81.29;100988.81;5014062;28;20055;-51
2024/04/06 04:50:03;;;;;;;15.75;7.07;;;;;;;13.51;81.02;100990.69;5044827;28;20468;-51
2024/04/06 04:52:29;;;;;;;15.32;6.53;;;;;;;13.61;81.34;100992.50;5037899;28;20512;-47
2024/04/06 04:54:55;;;;;;;14.63;7.10;;;;;;;13.60;80.96;100991.66;5038525;28;20057;-54
2024/04/06 04:57:20;;;;;;;14.13;7.32;;;;;;;13.60;81.63;100993.47;5036563;28;20056;-48
2024/04/06 04:59:46;;;;;;;17.35;6.97;;;;;;;13.59;81.61;100995.31;5044407;28;20492;-49
2024/04/06 05:02:14;;;;;;;11.60;6.57;;;;;;;13.49;82.00;101003.38;5038791;28;20052;-47
2024/04/06 05:04:40;;;;;;;13.70;6.93;;;;;;;13.54;81.29;100993.06;5030728;28;20049;-47
2024/04/06 05:07:06;;;;;;;14.55;7.63;;;;;;;13.47;82.39;100986.63;5021616;28;20047;-52
2024/04/06 05:09:31;;;;;;;16.13;7.85;;;;;;;13.56;82.12;100984.06;5037497;28;20132;-47
2024/04/06 05:11:57;;;;;;;14.15;7.10;;;;;;;13.46;83.06;100974.22;5036655;28;20041;-52
2024/04/06 05:14:23;;;;;;;13.98;7.35;;;;;;;13.36;83.13;100989.50;5035002;28;20052;-53
2024/04/06 05:16:48;;;;;;;12.55;7.45;;;;;;;13.43;83.07;100987.06;5042579;28;20560;-51
2024/04/06 05:19:14;;;;;;;13.70;7.63;;;;;;;13.39;83.32;100994.56;5045135;28;20064;-51
2024/04/06 05:21:40;;;;;;;11.48;7.45;;;;;;;13.44;83.30;100981.56;5038494;28;20057;-48
2024/04/06 05:24:06;;;;;;;18.17;8.15;;;;;;;13.25;84.28;100987.03;5033506;28;20307;-53
2024/04/06 05:26:31;;;;;;;15.40;7.57;;;;;;;13.63;82.93;100988.66;5023207;28;20381;-53
2024/04/06 05:28:57;;;;;;;15.90;8.00;;;;;;;13.72;82.71;100994.94;5024872;28;20080;-51
2024/04/06 05:31:23;;;;;;;16.33;7.60;;;;;;;13.66;83.08;100980.31;5019191;28;20083;-50
2024/04/06 05:33:49;;;;;;;13.10;7.30;;;;;;;13.65;82.77;100985.81;5013986;28;20072;-51
2024/04/06 05:36:16;;;;;;;11.45;6.78;;;;;;;13.66;83.47;100977.66;5023574;28;20060;-50
2024/04/06 05:38:43;;;;;;;18.58;8.70;;;;;;;13.65;84.04;100980.47;5030113;28;20114;-48
2024/04/06 05:41:09;;;;;;;13.75;7.07;;;;;;;13.88;82.64;100987.94;5043987;28;20077;-51
2024/04/06 05:43:35;;;;;;;12.45;6.60;;;;;;;13.72;84.03;100979.72;5025394;28;20045;-50
2024/04/06 05:46:04;;;;;;;15.43;7.07;;;;;;;13.85;82.85;100990.06;5044580;28;20064;-49
2024/04/06 05:48:31;;;;;;;14.32;7.72;;;;;;;13.70;84.10;100992.41;5034525;28;20075;-46
2024/04/06 05:50:58;;;;;;;12.85;7.00;;;;;;;13.86;83.84;100997.09;5044385;28;20041;-46
2024/04/06 05:53:24;;;;;;;11.38;7.57;;;;;;;13.85;84.50;100984.69;5015447;28;20049;-49
2024/04/06 05:55:50;;;;;;;17.10;7.22;;;;;;;13.98;83.95;100978.94;5037527;28;20385;-51
2024/04/06 05:58:16;;;;;;;12.82;7.20;;;;;;;14.04;84.11;100973.81;5009974;28;20107;-52
2024/04/06 06:00:42;;;;;;;11.40;6.97;;;;;;;14.13;83.56;100974.72;5034332;28;20084;-51
2024/04/06 06:03:08;;;;;;;10.57;6.25;;;;;;;14.16;83.31;100972.59;5020968;28;20045;-49
2024/04/06 06:05:33;;;;;;;12.75;6.05;;;;;;;14.14;83.53;100979.94;5013746;28;20503;-52
2024/04/06 06:08:00;;;;;;;13.73;6.18;;;;;;;14.00;84.95;100982.31;5014832;28;20438;-50
2024/04/06 06:10:26;;;;;;;13.45;6.15;;;;;;;14.39;83.03;100978.28;5012975;28;20047;-47
2024/04/06 06:12:52;;;;;;;10.43;6.18;;;;;;;14.38;83.76;100970.44;5013102;28;20045;-53
2024/04/06 06:15:18;;;;;;;9.98;5.25;;;;;;;14.49;82.95;100978.22;5034873;28;20085;-49
2024/04/06 06:17:43;;;;;;;17.83;6.30;;;;;;;14.53;83.29;100974.22;5015328;28;20400;-54
2024/04/06 06:20:09;;;;;;;10.18;4.85;;;;;;;14.47;83.74;100975.69;5041390;28;20091;-49
2024/04/06 06:22:35;;;;;;;7.13;4.95;;;;;;;14.17;85.77;100973.44;5025759;28;20045;-51
2024/04/06 06:25:03;;;;;;;8.10;4.68;;;;;;;14.42;83.89;100969.94;5023320;28;20053;-50
2024/04/06 06:27:30;;;;;;;9.40;5.15;;;;;;;14.23;84.39;100967.47;5021724;28;20037;-47
2024/04/06 06:29:56;;;;;;;7.93;4.18;;;;;;;14.42;85.50;100969.94;5009488;28;20098;-49
2024/04/06 06:32:21;;;;;;;10.05;4.38;;;;;;;14.37;85.77;100958.00;5014131;28;20046;-49
2024/04/06 06:34:47;;;;;;;10.50;4.70;;;;;;;14.55;84.00;100954.31;5039506;28;20105;-51
2024/04/06 06:37:13;;;;;;;9.68;4.20;;;;;;;14.52;84.49;100965.34;5040827;28;20436;-48
2024/04/06 06:39:39;;;;;;;8.35;3.95;;;;;;;14.72;84.50;100965.94;5040213;28;20047;-50
2024/04/06 06:42:08;;;;;;;8.55;4.10;;;;;;;14.69;84.93;100969.81;5041905;28;20064;-54
2024/04/06 06:44:34;;;;;;;10.35;4.30;;;;;;;14.96;83.92;100976.84;5037456;28;20041;-51
2024/04/06 06:47:01;;;;;;;7.43;3.83;;;;;;;15.34;82.59;100980.88;5040390;28;20377;-51
2024/04/06 06:49:26;;;;;;;7.18;3.42;;;;;;;15.59;82.56;100979.13;5034858;28;20041;-53
2024/04/06 06:51:52;;;;;;;8.45;3.60;;;;;;;15.36;83.10;100973.50;5036147;28;20448;-50
2024/04/06 06:54:18;;;;;;;9.00;3.60;;;;;;;15.63;81.86;100952.75;5040036;28;20107;-52
2024/04/06 06:56:44;;;;;;;4.72;2.97;;;;;;;15.81;81.16;100977.66;5043949;28;20472;-51
2024/04/06 06:59:09;;;;;;;6.95;3.00;;;;;;;15.92;80.47;100957.66;5021166;28;20434;-48
2024/04/06 07:01:36;;;;;;;6.40;2.95;;;;;;;16.02;80.03;100958.31;5017238;28;20040;-53
2024/04/06 07:04:01;;;;;;;6.72;2.78;;;;;;;15.95;80.08;100982.34;5041222;28;20411;-52
2024/04/06 07:06:27;;;;;;;6.72;2.80;;;;;;;15.26;82.54;100985.38;5035319;28;20037;-50
2024/04/06 07:08:53;;;;;;;7.05;2.67;;;;;;;15.58;81.04;100974.75;5012592;28;20060;-52
2024/04/06 07:11:19;;;;;;;6.95;3.03;;;;;;;15.74;80.84;100990.91;5017077;28;20468;-50
2024/04/06 07:13:45;;;;;;;8.05;3.05;;;;;;;15.72;81.12;100990.22;5025379;28;20059;-48
2024/04/06 07:16:14;;;;;;;7.18;2.85;;;;;;;15.87;80.21;100993.97;5041036;28;20431;-48
2024/04/06 07:18:40;;;;;;;6.75;3.00;;;;;;;15.86;80.18;100996.81;5040781;28;20041;-47
2024/04/06 07:21:08;;;;;;;4.70;2.55;;;;;;;15.84;81.77;100980.84;5039103;28;20166;-51
2024/04/06 07:23:34;;;;;;;5.70;2.70;;;;;;;16.11;81.17;100970.75;5037953;28;20397;-52
2024/04/06 07:25:59;;;;;;;6.68;2.78;;;;;;;16.01;80.20;100972.81;5023178;28;20391;-51
2024/04/06 07:28:25;;;;;;;4.82;2.22;;;;;;;16.17;80.47;100975.50;5032505;28;20136;-52
2024/04/06 07:30:51;;;;;;;6.18;3.03;;;;;;;16.59;78.85;100978.00;5039442;28;20121;-53
2024/04/06 07:33:17;;;;;;;8.25;2.78;;;;;;;16.03;80.17;100976.13;5040450;28;20049;-53
2024/04/06 07:35:45;;;;;;;12.48;2.60;;;;;;;16.62;78.29;100983.88;5037473;28;20494;-49
2024/04/06 07:38:11;;;;;;;9.35;2.67;;;;;;;16.68;77.16;100980.50;5042284;28;20049;-52
2024/04/06 07:40:37;;;;;;;4.45;2.40;;;;;;;16.78;77.06;100982.16;5021140;28;20049;-49
2024/04/06 07:43:03;;;;;;;5.18;2.95;;;;;;;16.82;76.98;100984.34;5040665;28;20122;-49
2024/04/06 07:45:32;;;;;;;8.60;2.53;;;;;;;16.92;76.24;100990.34;5021330;28;20037;-52
2024/04/06 07:47:58;;;;;;;6.47;2.58;;;;;;;16.75;76.64;100990.59;5023001;28;20053;-53
2024/04/06 07:50:24;;;;;;;5.65;2.33;;;;;;;16.57;78.29;100983.53;5037555;28;20051;-52
2024/04/06 07:52:50;;;;;;;5.40;2.45;;;;;;;16.96;76.79;100982.81;5021667;28;20149;-49
2024/04/06 07:55:16;;;;;;;7.97;2.45;;;;;;;16.53;77.98;100979.53;5040841;28;20495;-47
2024/04/06 07:57:43;;;;;;;9.93;2.70;;;;;;;17.00;76.36;100967.97;5041754;28;20510;-49
2024/04/06 08:00:11;;;;;;;6.40;2.50;;;;;;;17.18;75.72;100963.19;5034812;28;20049;-51
2024/04/06 08:02:37;;;;;;;7.03;2.33;;;;;;;16.89;76.26;100981.78;5039618;28;20053;-52
2024/04/06 08:05:05;;;;;;;5.40;2.05;;;;;;;17.20;75.90;100974.63;5044980;28;20131;-52
2024/04/06 08:07:31;;;;;;;4.63;2.20;;;;;;;17.12;75.53;100974.66;5040869;28;20041;-52
2024/04/06 08:09:58;;;;;;;6.25;2.58;;;;;;;17.27;75.55;100972.91;5018655;28;20052;-47
2024/04/06 08:12:25;;;;;;;7.22;2.40;;;;;;;17.10;75.50;100975.88;5030787;28;20037;-52
2024/04/06 08:14:51;;;;;;;5.55;2.20;;;;;;;17.66;73.90;100980.09;5041571;28;20056;-50
2024/04/06 08:17:17;;;;;;;4.72;2.10;;;;;;;17.67;73.76;100971.00;5011113;28;20053;-50
2024/04/06 08:19:43;;;;;;;4.18;2.58;;;;;;;17.78;73.84;100963.41;5014431;28;20136;-47
2024/04/06 08:22:08;;;;;;;5.07;1.88;;;;;;;17.40;74.62;100961.56;5032620;28;20065;-51
2024/04/06 08:24:34;;;;;;;6.50;2.25;;;;;;;17.30;74.83;100950.19;5022318;28;20135;-49
2024/04/06 08:27:00;;;;;;;7.28;2.40;;;;;;;17.60;74.21;100953.88;5021331;28;20048;-54
2024/04/06 08:29:27;;;;;;;4.93;2.28;;;;;;;17.91;74.23;100960.09;5022507;28;20056;-53
2024/04/06 08:31:55;;;;;;;6.78;1.92;;;;;;;18.05;73.50;100955.78;5033399;28;20056;-50
2024/04/06 08:34:46;;;;;;;5.60;2.05;;;;;;;18.37;71.53;100944.69;5037439;28;20057;-53
2024/04/06 08:37:12;;;;;;;8.75;2.75;;;;;;;17.80;72.83;100939.78;5023964;28;20516;-60
2024/04/06 08:39:38;;;;;;;5.10;2.28;;;;;;;17.85;72.59;100928.47;5035357;28;20126;-53
2024/04/06 08:42:04;;;;;;;3.95;1.65;;;;;;;18.62;71.84;100921.84;5013195;28;20045;-48
2024/04/06 08:44:42;;;;;;;5.90;1.80;;;;;;;18.96;69.64;100923.13;5033764;28;20052;-47
2024/04/06 08:47:11;;;;;;;4.18;2.20;;;;;;;18.55;69.61;100930.88;5025783;28;20053;-53
2024/04/06 08:49:39;;;;;;;7.45;2.28;;;;;;;18.67;70.20;100934.81;5030841;28;20063;-51
2024/04/06 08:52:05;;;;;;;9.57;3.17;;;;;;;18.45;69.93;100924.88;5041781;28;20516;-46
2024/04/06 08:54:31;;;;;;;6.22;2.30;;;;;;;18.66;69.85;100933.13;5040788;28;20041;-50
2024/04/06 08:56:59;;;;;;;9.98;3.28;;;;;;;18.87;69.44;100927.81;5029188;28;20666;-48
2024/04/06 08:59:25;;;;;;;5.13;2.10;;;;;;;18.79;69.18;100922.50;5037789;28;20056;-49
2024/04/06 09:01:51;;;;;;;5.95;2.40;;;;;;;18.77;69.25;100927.25;5042857;28;20381;-50
2024/04/06 09:04:17;;;;;;;7.40;2.60;;;;;;;18.95;68.10;100919.59;5042293;28;20378;-48
2024/04/06 09:06:46;;;;;;;6.53;2.30;;;;;;;19.40;68.01;100915.00;5011911;28;21326;-47
2024/04/06 09:09:12;;;;;;;8.98;2.88;;;;;;;19.01;68.62;100913.47;5018372;28;20042;-49
2024/04/06 09:11:38;;;;;;;9.25;3.25;;;;;;;18.65;69.15;100909.84;5031642;28;20063;-57
2024/04/06 09:14:06;;;;;;;76.03;20.08;;;;;;;19.11;69.01;100898.81;5037322;28;20048;-49
2024/04/06 09:16:33;;;;;;;4.00;1.90;;;;;;;18.59;67.03;100889.00;5003358;28;20055;-49
2024/04/06 09:18:59;;;;;;;4.68;2.55;;;;;;;18.85;67.63;100886.66;5039023;28;20361;-48
2024/04/06 09:21:25;;;;;;;4.50;1.70;;;;;;;19.21;66.22;100880.47;5010068;28;20128;-50
2024/04/06 09:23:53;;;;;;;4.25;1.73;;;;;;;19.24;65.40;100882.78;5022852;28;20478;-51
2024/04/06 09:26:21;;;;;;;5.07;1.50;;;;;;;19.24;68.59;100883.63;5017619;28;20049;-52
2024/04/06 09:28:50;;;;;;;5.28;1.90;;;;;;;19.26;66.07;100878.88;5028538;28;20526;-55
2024/04/06 09:31:24;;;;;;;5.35;1.90;;;;;;;19.34;65.81;100869.81;5022217;28;20388;-53
2024/04/06 09:33:58;;;;;;;3.90;1.80;;;;;;;19.53;65.07;100871.03;5007095;28;20170;-50
2024/04/06 09:36:25;;;;;;;6.57;1.80;;;;;;;19.75;64.58;100868.16;5041777;28;20041;-46
2024/04/06 09:38:52;;;;;;;3.35;1.65;;;;;;;19.83;64.54;100856.38;5026504;28;20052;-52
2024/04/06 09:41:20;;;;;;;6.05;2.10;;;;;;;19.50;63.31;100837.13;5023108;28;20502;-47
2024/04/06 09:43:54;;;;;;;5.05;2.03;;;;;;;19.70;64.53;100830.03;5042292;28;20391;-48
2024/04/06 09:46:20;;;;;;;5.03;1.70;;;;;;;19.47;65.01;100839.38;5041684;28;20043;-49
2024/04/06 09:48:47;;;;;;;4.90;1.65;;;;;;;19.75;62.89;100835.69;5040081;28;20041;-51
2024/04/06 09:51:13;;;;;;;2.95;1.52;;;;;;;19.68;63.19;100829.41;5030255;28;20063;-54
2024/04/06 09:53:41;;;;;;;3.88;1.83;;;;;;;20.32;62.51;100825.72;5005786;28;20380;-56
2024/04/06 09:56:09;;;;;;;3.50;1.67;;;;;;;19.78;62.59;100818.22;5037867;28;20049;-55
2024/04/06 09:58:35;;;;;;;4.65;1.90;;;;;;;19.93;62.73;100813.59;5017069;28;20049;-53
2024/04/06 10:01:15;;;;;;;6.13;1.70;;;;;;;20.50;62.50;100805.22;5043578;28;20518;-50
2024/04/06 10:03:48;;;;;;;3.15;1.70;;;;;;;20.62;60.94;100812.78;5039815;28;20063;-54
2024/04/06 10:06:16;;;;;;;4.70;1.70;;;;;;;20.50;62.04;100797.09;5034060;28;20053;-59
2024/04/06 10:08:52;;;;;;;4.68;1.75;;;;;;;20.19;61.87;100794.00;5036840;28;20400;-59
2024/04/06 10:11:20;;;;;;;5.68;1.75;;;;;;;20.39;60.75;100789.53;5041261;28;20056;-56
2024/04/06 10:14:12;;;;;;;6.03;2.00;;;;;;;20.21;61.25;100773.00;5038480;28;20052;-54
2024/04/06 10:16:41;;;;;;;3.17;1.42;;;;;;;20.45;61.90;100764.38;5036515;28;20049;-54
2024/04/06 10:19:08;;;;;;;6.05;1.98;;;;;;;20.36;60.05;100753.94;5038454;28;20049;-55
2024/04/06 10:21:45;;;;;;;3.40;1.90;;;;;;;20.78;61.98;100750.16;5038607;28;20072;-51
2024/04/06 10:24:16;;;;;;;7.90;1.80;;;;;;;20.79;61.65;100746.41;5039554;28;20056;-53
2024/04/06 10:26:47;;;;;;;4.47;1.70;;;;;;;20.92;60.21;100754.56;5004814;28;20075;-55
2024/04/06 10:29:13;;;;;;;2.80;1.40;;;;;;;21.19;60.96;100750.03;5043434;28;20071;-58
2024/04/06 10:31:40;;;;;;;4.57;1.60;;;;;;;21.08;60.32;100740.63;5041202;28;20506;-60
2024/04/06 10:34:06;;;;;;;4.40;1.63;;;;;;;20.60;60.13;100736.34;5033920;28;20045;-60
2024/04/06 10:36:32;;;;;;;4.10;1.65;;;;;;;20.96;59.65;100742.28;5038220;28;20191;-50
2024/04/06 10:38:58;;;;;;;12.20;2.30;;;;;;;20.79;58.24;100743.72;5020686;28;20103;-56
2024/04/06 10:41:24;;;;;;;143.85;10.80;;;;;;;21.08;58.90;100753.34;5020265;28;20055;-57
2024/04/06 10:43:50;;;;;;;10.27;2.33;;;;;;;21.00;57.94;100726.47;5038410;28;20134;-51
2024/04/06 10:46:16;;;;;;;4.13;1.80;;;;;;;20.95;57.89;100722.47;5018421;28;20395;-50
2024/04/06 10:48:43;;;;;;;3.95;1.58;;;;;;;20.65;59.20;100728.47;5021801;28;20041;-58
2024/04/06 10:51:09;;;;;;;4.63;1.70;;;;;;;21.03;57.90;100721.44;5003503;28;20044;-55
2024/04/06 10:53:35;;;;;;;7.25;1.65;;;;;;;21.22;56.26;100706.25;5034637;28;20095;-54
2024/04/06 10:56:03;;;;;;;5.47;1.40;;;;;;;21.65;56.67;100712.94;5041915;28;20502;-56
2024/04/06 10:58:29;;;;;;;4.82;1.60;;;;;;;21.33;58.01;100705.66;5040030;28;20037;-50
2024/04/06 11:00:54;;;;;;;2.88;1.55;;;;;;;21.18;56.65;100700.41;5041632;28;20507;-52
2024/04/06 11:03:21;;;;;;;7.25;2.10;;;;;;;21.23;55.52;100692.50;5022638;28;20457;-55
2024/04/06 11:05:48;;;;;;;5.03;1.73;;;;;;;21.69;54.64;100686.22;5040141;28;20045;-53
2024/04/06 11:08:13;;;;;;;4.15;1.58;;;;;;;21.80;55.41;100692.88;5017827;28;20056;-52
2024/04/06 11:10:39;;;;;;;6.97;1.73;;;;;;;21.72;54.10;100685.81;5031056;28;20044;-48
2024/04/06 11:13:05;;;;;;;5.63;1.70;;;;;;;21.70;55.12;100688.72;5042448;28;20041;-52
2024/04/06 11:15:31;;;;;;;5.78;1.77;;;;;;;21.53;55.57;100682.09;5029822;28;20041;-47
2024/04/06 11:17:57;;;;;;;4.05;1.60;;;;;;;21.58;55.09;100684.16;5040718;28;20408;-52